createdAt,value
2019-02-27T00:00:45.117Z,102499.39
2019-02-27T00:02:53.749Z,102493.75
2019-02-27T00:04:59.072Z,102495.92
2019-02-27T00:07:05.294Z,102492.27
2019-02-27T00:09:12.299Z,102489.80
2019-02-27T00:11:18.554Z,102487.29
2019-02-27T00:13:25.432Z,102492.45
2019-02-27T00:15:37.797Z,102483.86
2019-02-27T00:17:41.872Z,102486.11
2019-02-27T00:19:47.993Z,102483.16
2019-02-27T00:21:54.044Z,102483.52
2019-02-27T00:24:00.333Z,102481.34
2019-02-27T00:26:09.061Z,102490.87
2019-02-27T00:28:16.018Z,102486.52
2019-02-27T00:30:22.278Z,102495.86
2019-02-27T00:32:28.355Z,102491.05
2019-02-27T00:34:34.792Z,102488.36
2019-02-27T00:36:44.878Z,102491.76
2019-02-27T00:38:48.877Z,102490.62
2019-02-27T00:40:55.114Z,102492.80
2019-02-27T00:43:01.274Z,102495.05
2019-02-27T00:45:10.894Z,102491.09
2019-02-27T00:47:19.982Z,102491.87
2019-02-27T00:49:24.976Z,102498.22
2019-02-27T00:51:31.112Z,102501.98
2019-02-27T00:53:37.284Z,102501.45
2019-02-27T00:55:43.533Z,102507.77
2019-02-27T00:57:51.823Z,102507.73
2019-02-27T00:59:57.592Z,102509.50
2019-02-27T01:02:03.856Z,102502.08
2019-02-27T01:04:10.121Z,102490.82
2019-02-27T01:06:16.362Z,102481.16
2019-02-27T01:08:22.416Z,102479.19
2019-02-27T01:10:28.671Z,102474.75
2019-02-27T01:12:34.823Z,102472.39
2019-02-27T01:14:40.886Z,102466.81
2019-02-27T01:16:47.752Z,102466.19
2019-02-27T01:18:54.849Z,102464.34
2019-02-27T01:21:01.101Z,102459.42
2019-02-27T01:23:10.880Z,102466.16
2019-02-27T01:25:15.055Z,102464.75
2019-02-27T01:27:21.127Z,102464.63
2019-02-27T01:29:27.266Z,102460.65
2019-02-27T01:31:33.426Z,102460.97
2019-02-27T01:33:39.900Z,102455.37
2019-02-27T01:35:45.950Z,102455.77
2019-02-27T01:37:52.016Z,102453.48
2019-02-27T01:39:58.259Z,102455.94
2019-02-27T01:42:04.423Z,102452.76
2019-02-27T01:44:11.192Z,102443.24
2019-02-27T01:46:18.460Z,102433.28
2019-02-27T01:48:24.771Z,102437.84
2019-02-27T01:50:36.887Z,102433.37
2019-02-27T01:52:42.989Z,102438.01
2019-02-27T01:54:49.579Z,102435.72
2019-02-27T01:56:55.832Z,102435.19
2019-02-27T01:59:02.114Z,102437.73
2019-02-27T02:01:08.347Z,102440.30
2019-02-27T02:03:14.395Z,102439.82
2019-02-27T02:05:20.657Z,102432.48
2019-02-27T02:07:26.806Z,102428.62
2019-02-27T02:09:34.809Z,102427.25
2019-02-27T02:11:41.249Z,102431.97
2019-02-27T02:14:03.708Z,102430.19
2019-02-27T02:16:34.313Z,102428.78
2019-02-27T02:19:02.826Z,102441.16
2019-02-27T02:21:28.072Z,102439.86
2019-02-27T02:23:59.482Z,102424.50
2019-02-27T02:26:46.097Z,102418.94
2019-02-27T02:29:22.348Z,102420.16
2019-02-27T02:31:42.654Z,102423.09
2019-02-27T02:34:17.917Z,102430.35
2019-02-27T02:37:01.223Z,102426.00
2019-02-27T02:39:33.694Z,102423.86
2019-02-27T02:42:05.045Z,102428.25
2019-02-27T02:44:22.081Z,102411.37
2019-02-27T02:46:59.900Z,102408.38
2019-02-27T02:49:19.408Z,102407.09
2019-02-27T02:51:44.705Z,102408.71
2019-02-27T02:54:14.852Z,102412.05
2019-02-27T02:56:39.854Z,102413.14
2019-02-27T02:59:31.484Z,102415.48
2019-02-27T03:02:00.055Z,102420.11
2019-02-27T03:04:25.468Z,102410.95
2019-02-27T03:06:38.593Z,102416.92
2019-02-27T03:08:55.255Z,102401.93
2019-02-27T03:11:29.196Z,102405.31
2019-02-27T03:13:48.257Z,102399.63
2019-02-27T03:16:20.937Z,102408.12
2019-02-27T03:18:40.093Z,102413.56
2019-02-27T03:20:52.308Z,102415.73
2019-02-27T03:23:02.848Z,102423.07
2019-02-27T03:25:31.457Z,102418.72
2019-02-27T03:28:05.094Z,102420.05
2019-02-27T03:30:17.451Z,102418.72
2019-02-27T03:32:52.185Z,102417.03
2019-02-27T03:35:11.045Z,102414.45
2019-02-27T03:37:27.529Z,102410.98
2019-02-27T03:39:58.256Z,102409.70
2019-02-27T03:42:44.975Z,102406.72
2019-02-27T03:45:36.174Z,102395.84
2019-02-27T03:48:14.707Z,102390.23
2019-02-27T03:50:49.524Z,102380.38
2019-02-27T03:53:12.385Z,102379.44
2019-02-27T03:55:42.706Z,102369.49
2019-02-27T03:58:21.877Z,102363.86
2019-02-27T04:00:34.979Z,102356.36
2019-02-27T04:02:59.852Z,102352.02
2019-02-27T04:05:16.033Z,102347.34
2019-02-27T04:07:35.304Z,102349.76
2019-02-27T04:09:41.376Z,102351.36
2019-02-27T04:11:47.511Z,102344.48
2019-02-27T04:13:53.683Z,102346.73
2019-02-27T04:15:59.954Z,102339.13
2019-02-27T04:18:04.957Z,102339.13
2019-02-27T04:20:14.643Z,102335.25
2019-02-27T04:22:20.047Z,102340.81
2019-02-27T04:24:26.215Z,102342.98
2019-02-27T04:26:32.688Z,102337.43
2019-02-27T04:28:38.850Z,102339.25
2019-02-27T04:30:44.909Z,102338.36
2019-02-27T04:32:51.152Z,102341.30
2019-02-27T04:34:57.308Z,102333.33
2019-02-27T04:37:03.344Z,102328.98
2019-02-27T04:39:09.717Z,102328.97
2019-02-27T04:41:18.137Z,102329.89
2019-02-27T04:43:23.582Z,102327.48
2019-02-27T04:45:29.837Z,102326.18
2019-02-27T04:47:35.989Z,102326.06
2019-02-27T04:49:42.148Z,102324.38
2019-02-27T04:51:50.608Z,102320.47
2019-02-27T04:53:56.210Z,102315.41
2019-02-27T04:56:02.368Z,102319.41
2019-02-27T04:58:09.693Z,102318.52
2019-02-27T05:00:16.563Z,102315.11
2019-02-27T05:02:22.809Z,102315.52
2019-02-27T05:04:28.947Z,102315.34
2019-02-27T05:06:35.105Z,102311.66
2019-02-27T05:08:41.355Z,102311.53
2019-02-27T05:10:47.510Z,102304.24
2019-02-27T05:12:53.590Z,102309.44
2019-02-27T05:15:03.487Z,102303.56
2019-02-27T05:17:08.759Z,102298.70
2019-02-27T05:19:15.319Z,102297.16
2019-02-27T05:21:21.691Z,102294.18
2019-02-27T05:23:27.749Z,102289.84
2019-02-27T05:25:33.909Z,102288.27
2019-02-27T05:27:40.072Z,102286.49
2019-02-27T05:29:46.338Z,102294.34
2019-02-27T05:31:54.054Z,102292.20
2019-02-27T05:34:00.163Z,102292.73
2019-02-27T05:36:06.322Z,102280.77
2019-02-27T05:38:12.481Z,102277.39
2019-02-27T05:40:18.640Z,102278.59
2019-02-27T05:42:24.834Z,102282.91
2019-02-27T05:44:30.964Z,102276.86
2019-02-27T05:46:38.497Z,102278.88
2019-02-27T05:48:45.221Z,102277.15
2019-02-27T05:50:51.371Z,102274.17
2019-02-27T05:52:57.531Z,102276.75
2019-02-27T05:55:06.053Z,102271.16
2019-02-27T05:57:12.020Z,102269.94
2019-02-27T05:59:18.262Z,102267.44
2019-02-27T06:01:24.323Z,102270.30
2019-02-27T06:03:30.459Z,102269.09
2019-02-27T06:05:36.636Z,102268.32
2019-02-27T06:07:42.909Z,102267.51
2019-02-27T06:09:49.124Z,102267.27
2019-02-27T06:11:55.196Z,102267.67
2019-02-27T06:14:01.377Z,102270.37
2019-02-27T06:16:09.147Z,102270.63
2019-02-27T06:18:15.514Z,102266.45
2019-02-27T06:20:22.708Z,102269.21
2019-02-27T06:22:30.382Z,102264.58
2019-02-27T06:24:36.766Z,102267.34
2019-02-27T06:26:42.771Z,102268.50
2019-02-27T06:28:48.871Z,102270.56
2019-02-27T06:30:55.348Z,102276.76
2019-02-27T06:33:01.603Z,102280.45
2019-02-27T06:35:11.528Z,102274.70
2019-02-27T06:37:19.078Z,102269.86
2019-02-27T06:39:25.309Z,102268.79
2019-02-27T06:41:31.671Z,102257.05
2019-02-27T06:43:37.938Z,102262.84
2019-02-27T06:45:46.476Z,102251.43
2019-02-27T06:47:52.093Z,102250.42
2019-02-27T06:49:58.225Z,102246.41
2019-02-27T06:52:04.308Z,102241.86
2019-02-27T06:54:10.547Z,102243.45
2019-02-27T06:56:16.707Z,102240.36
2019-02-27T06:58:23.069Z,102242.83
2019-02-27T07:00:29.239Z,102242.31
2019-02-27T07:02:35.400Z,102244.20
2019-02-27T07:04:41.537Z,102237.18
2019-02-27T07:06:47.688Z,102236.11
2019-02-27T07:08:53.961Z,102233.77
2019-02-27T07:11:10.411Z,102231.47
2019-02-27T07:13:08.121Z,102227.42
2019-02-27T07:15:22.148Z,102225.08
2019-02-27T07:17:29.169Z,102218.41
2019-02-27T07:19:36.301Z,102215.50
2019-02-27T07:21:42.390Z,102213.50
2019-02-27T07:23:48.553Z,102214.55
2019-02-27T07:25:54.845Z,102205.23
2019-02-27T07:28:00.857Z,102200.61
2019-02-27T07:30:12.629Z,102202.52
2019-02-27T07:32:18.696Z,102201.44
2019-02-27T07:34:24.867Z,102195.20
2019-02-27T07:36:30.964Z,102191.47
2019-02-27T07:38:36.968Z,102187.61
2019-02-27T07:40:43.578Z,102187.80
2019-02-27T07:42:49.887Z,102186.28
2019-02-27T07:44:56.048Z,102180.77
2019-02-27T07:47:02.104Z,102181.39
2019-02-27T07:49:08.215Z,102181.54
2019-02-27T07:51:14.429Z,102177.08
2019-02-27T07:53:20.556Z,102175.98
2019-02-27T07:55:28.455Z,102176.20
2019-02-27T07:57:34.730Z,102178.18
2019-02-27T07:59:40.988Z,102171.50
2019-02-27T08:01:47.167Z,102171.30
2019-02-27T08:03:53.420Z,102159.92
2019-02-27T08:05:59.879Z,102161.91
2019-02-27T08:08:07.484Z,102156.49
2019-02-27T08:10:25.461Z,102158.92
2019-02-27T08:12:31.776Z,102147.02
2019-02-27T08:14:38.031Z,102147.72
2019-02-27T08:16:44.276Z,102151.83
2019-02-27T08:18:50.555Z,102148.09
2019-02-27T08:20:56.906Z,102138.72
2019-02-27T08:23:03.086Z,102144.53
2019-02-27T08:25:20.808Z,102141.73
2019-02-27T08:27:27.046Z,102129.88
2019-02-27T08:29:34.265Z,102131.45
2019-02-27T08:31:40.508Z,102129.06
2019-02-27T08:33:46.771Z,102126.27
2019-02-27T08:35:54.570Z,102127.36
2019-02-27T08:38:02.779Z,102117.63
2019-02-27T08:40:12.616Z,102114.03
2019-02-27T08:42:18.867Z,102101.16
2019-02-27T08:44:25.037Z,102099.58
2019-02-27T08:46:34.050Z,102092.39
2019-02-27T08:48:39.297Z,102092.61
2019-02-27T08:50:45.563Z,102093.20
2019-02-27T08:52:52.035Z,102089.86
2019-02-27T08:54:58.401Z,102082.65
2019-02-27T08:57:04.635Z,102080.58
2019-02-27T08:59:10.807Z,102076.38
2019-02-27T09:01:19.083Z,102073.38
2019-02-27T09:03:24.857Z,102059.14
2019-02-27T09:05:31.525Z,102053.14
2019-02-27T09:07:37.722Z,102049.73
2019-02-27T09:09:43.949Z,102048.02
2019-02-27T09:11:50.196Z,102041.13
2019-02-27T09:13:56.368Z,102033.73
2019-02-27T09:16:02.632Z,102034.23
2019-02-27T09:18:08.796Z,102030.34
2019-02-27T09:20:19.691Z,102021.62
2019-02-27T09:22:25.693Z,102021.63
2019-02-27T09:24:31.856Z,102020.78
2019-02-27T09:26:38.118Z,102016.42
2019-02-27T09:28:45.160Z,102013.39
2019-02-27T09:30:51.467Z,102003.78
2019-02-27T09:32:57.736Z,102005.50
2019-02-27T09:35:04.724Z,102000.28
2019-02-27T09:37:13.903Z,101995.91
2019-02-27T09:39:19.161Z,102005.52
2019-02-27T09:41:26.861Z,102007.24
2019-02-27T09:43:34.718Z,102000.27
2019-02-27T09:45:40.927Z,101999.37
2019-02-27T09:47:47.277Z,101999.80
2019-02-27T09:49:53.540Z,101994.56
2019-02-27T09:51:59.699Z,101998.03
2019-02-27T09:54:08.005Z,101991.48
2019-02-27T09:56:14.575Z,101987.56
2019-02-27T09:58:22.778Z,101991.01
2019-02-27T10:00:52.901Z,101991.44
2019-02-27T10:02:59.055Z,101981.41
2019-02-27T10:05:06.035Z,101975.28
2019-02-27T10:07:14.589Z,101986.58
2019-02-27T10:09:21.113Z,101988.30
2019-02-27T10:11:27.595Z,101980.84
2019-02-27T10:13:35.476Z,101978.63
2019-02-27T10:15:41.992Z,101980.33
2019-02-27T10:17:48.304Z,101972.00
2019-02-27T10:19:54.571Z,101971.06
2019-02-27T10:22:00.923Z,101963.59
2019-02-27T10:24:07.117Z,101957.88
2019-02-27T10:26:13.561Z,101949.06
2019-02-27T10:28:19.683Z,101946.80
2019-02-27T10:30:25.972Z,101934.44
2019-02-27T10:32:36.451Z,101941.84
2019-02-27T10:34:40.032Z,101928.30
2019-02-27T10:36:47.642Z,101930.42
2019-02-27T10:38:54.993Z,101933.95
2019-02-27T10:41:01.159Z,101928.64
2019-02-27T10:43:07.310Z,101919.39
2019-02-27T10:45:15.432Z,101921.48
2019-02-27T10:47:21.795Z,101912.63
2019-02-27T10:49:27.835Z,101902.45
2019-02-27T10:51:34.111Z,101899.75
2019-02-27T10:53:40.426Z,101892.23
2019-02-27T10:55:49.262Z,101883.36
2019-02-27T10:57:54.618Z,101894.17
2019-02-27T11:00:00.757Z,101882.66
2019-02-27T11:02:09.737Z,101887.42
2019-02-27T11:04:16.876Z,101876.88
2019-02-27T11:06:23.022Z,101872.31
2019-02-27T11:08:29.708Z,101872.84
2019-02-27T11:10:35.978Z,101862.72
2019-02-27T11:12:42.126Z,101854.20
2019-02-27T11:14:48.400Z,101847.70
2019-02-27T11:16:54.649Z,101836.53
2019-02-27T11:19:02.343Z,101831.86
2019-02-27T11:21:08.601Z,101827.23
2019-02-27T11:23:14.766Z,101826.42
2019-02-27T11:25:33.709Z,101826.99
2019-02-27T11:27:39.834Z,101815.88
2019-02-27T11:29:46.031Z,101808.67
2019-02-27T11:31:53.294Z,101797.83
2019-02-27T11:34:01.107Z,101799.58
2019-02-27T11:36:08.608Z,101790.55
2019-02-27T11:38:16.000Z,101781.59
2019-02-27T11:40:27.200Z,101785.37
2019-02-27T11:42:33.538Z,101781.56
2019-02-27T11:44:39.877Z,101771.33
2019-02-27T11:46:46.049Z,101765.98
2019-02-27T11:48:52.308Z,101764.14
2019-02-27T11:50:58.560Z,101757.70
2019-02-27T11:53:04.828Z,101758.35
2019-02-27T11:55:15.578Z,101752.73
2019-02-27T11:57:21.758Z,101749.28
2019-02-27T11:59:28.007Z,101741.16
2019-02-27T12:01:34.189Z,101736.70
2019-02-27T12:03:40.535Z,101731.02
2019-02-27T12:05:46.788Z,101728.14
2019-02-27T12:07:53.062Z,101729.84
2019-02-27T12:09:59.316Z,101721.41
2019-02-27T12:12:06.185Z,101710.37
2019-02-27T12:14:12.358Z,101711.31
2019-02-27T12:16:18.643Z,101702.81
2019-02-27T12:18:24.861Z,101696.89
2019-02-27T12:20:31.122Z,101687.30
2019-02-27T12:22:38.110Z,101686.41
2019-02-27T12:24:44.386Z,101686.02
2019-02-27T12:26:50.610Z,101676.06
2019-02-27T12:28:56.723Z,101674.55
2019-02-27T12:31:02.948Z,101670.03
2019-02-27T12:33:09.512Z,101671.06
2019-02-27T12:35:22.442Z,101662.98
2019-02-27T12:37:34.080Z,101659.08
2019-02-27T12:39:37.599Z,101668.89
2019-02-27T12:41:43.720Z,101666.74
2019-02-27T12:43:52.646Z,101657.61
2019-02-27T12:46:00.995Z,101648.91
2019-02-27T12:48:05.791Z,101647.59
2019-02-27T12:50:16.380Z,101638.08
2019-02-27T12:52:22.781Z,101636.41
2019-02-27T12:54:29.007Z,101634.63
2019-02-27T12:56:35.228Z,101628.56
2019-02-27T12:58:41.650Z,101621.19
2019-02-27T13:00:47.898Z,101626.45
2019-02-27T13:02:55.178Z,101613.34
2019-02-27T13:05:01.326Z,101620.30
2019-02-27T13:07:10.252Z,101606.59
2019-02-27T13:09:15.383Z,101609.94
2019-02-27T13:11:21.526Z,101601.09
2019-02-27T13:13:27.820Z,101596.20
2019-02-27T13:15:34.067Z,101598.34
2019-02-27T13:17:40.326Z,101604.83
2019-02-27T13:19:46.586Z,101592.03
2019-02-27T13:21:55.017Z,101585.70
2019-02-27T13:24:00.858Z,101583.59
2019-02-27T13:26:08.251Z,101579.78
2019-02-27T13:28:15.546Z,101579.34
2019-02-27T13:30:24.379Z,101578.80
2019-02-27T13:32:30.608Z,101577.80
2019-02-27T13:34:36.710Z,101566.56
2019-02-27T13:36:42.935Z,101562.73
2019-02-27T13:38:52.203Z,101569.33
2019-02-27T13:40:58.627Z,101552.61
2019-02-27T13:43:04.975Z,101547.33
2019-02-27T13:45:15.963Z,101548.22
2019-02-27T13:47:22.213Z,101547.05
2019-02-27T13:49:28.574Z,101542.73
2019-02-27T13:51:37.287Z,101541.05
2019-02-27T13:53:42.633Z,101532.75
2019-02-27T13:55:49.005Z,101528.80
2019-02-27T13:57:58.794Z,101523.52
2019-02-27T14:00:03.459Z,101515.64
2019-02-27T14:02:11.513Z,101516.16
2019-02-27T14:04:21.679Z,101515.64
2019-02-27T14:06:25.720Z,101509.93
2019-02-27T14:08:32.875Z,101505.91
2019-02-27T14:10:39.250Z,101512.51
2019-02-27T14:12:45.437Z,101501.98
2019-02-27T14:14:53.302Z,101497.05
2019-02-27T14:16:59.579Z,101494.00
2019-02-27T14:19:05.839Z,101489.62
2019-02-27T14:21:12.099Z,101488.31
2019-02-27T14:23:18.359Z,101477.42
2019-02-27T14:25:34.769Z,101472.14
2019-02-27T14:27:41.119Z,101465.09
2019-02-27T14:29:47.376Z,101464.56
2019-02-27T14:31:53.539Z,101453.66
2019-02-27T14:33:59.798Z,101443.23
2019-02-27T14:36:08.507Z,101436.23
2019-02-27T14:38:13.967Z,101443.29
2019-02-27T14:40:22.469Z,101437.23
2019-02-27T14:42:28.747Z,101432.50
2019-02-27T14:44:35.098Z,101422.06
2019-02-27T14:46:41.945Z,101416.53
2019-02-27T14:48:49.350Z,101415.16
2019-02-27T14:50:55.526Z,101406.02
2019-02-27T14:53:01.768Z,101399.46
2019-02-27T14:55:14.369Z,101391.73
2019-02-27T14:57:20.550Z,101390.47
2019-02-27T14:59:30.622Z,101398.75
2019-02-27T15:01:34.699Z,101390.23
2019-02-27T15:03:40.972Z,101391.92
2019-02-27T15:05:47.224Z,101384.02
2019-02-27T15:07:54.806Z,101382.74
2019-02-27T15:10:01.380Z,101378.04
2019-02-27T15:12:09.076Z,101372.83
2019-02-27T15:14:15.356Z,101373.41
2019-02-27T15:16:24.565Z,101369.09
2019-02-27T15:18:30.856Z,101360.92
2019-02-27T15:20:40.188Z,101353.16
2019-02-27T15:22:46.757Z,101360.32
2019-02-27T15:24:53.085Z,101365.72
2019-02-27T15:27:00.455Z,101350.98
2019-02-27T15:29:06.726Z,101350.20
2019-02-27T15:31:12.907Z,101362.08
2019-02-27T15:33:20.487Z,101352.07
2019-02-27T15:35:28.387Z,101350.07
2019-02-27T15:37:37.454Z,101348.95
2019-02-27T15:39:43.368Z,101347.85
2019-02-27T15:41:49.648Z,101344.88
2019-02-27T15:44:00.198Z,101344.95
2019-02-27T15:46:03.903Z,101344.58
2019-02-27T15:48:10.458Z,101346.03
2019-02-27T15:50:23.019Z,101341.23
2019-02-27T15:52:28.815Z,101341.72
2019-02-27T15:54:34.951Z,101335.26
2019-02-27T15:56:43.159Z,101339.18
2019-02-27T15:58:49.228Z,101334.51
2019-02-27T16:00:55.493Z,101340.36
2019-02-27T16:03:01.745Z,101343.25
2019-02-27T16:05:12.170Z,101342.58
2019-02-27T16:07:18.470Z,101337.58
2019-02-27T16:09:24.725Z,101339.59
2019-02-27T16:11:31.084Z,101338.84
2019-02-27T16:13:37.342Z,101339.06
2019-02-27T16:15:44.833Z,101338.86
2019-02-27T16:17:51.505Z,101346.03
2019-02-27T16:19:57.659Z,101335.17
2019-02-27T16:22:03.925Z,101338.81
2019-02-27T16:24:11.405Z,101333.74
2019-02-27T16:26:17.575Z,101332.05
2019-02-27T16:28:23.966Z,101328.66
2019-02-27T16:30:37.244Z,101320.04
2019-02-27T16:32:48.020Z,101317.61
2019-02-27T16:34:51.416Z,101312.05
2019-02-27T16:36:57.685Z,101309.13
2019-02-27T16:39:07.398Z,101309.66
2019-02-27T16:41:16.400Z,101308.01
2019-02-27T16:43:22.712Z,101299.39
2019-02-27T16:45:39.422Z,101299.91
2019-02-27T16:47:45.676Z,101296.05
2019-02-27T16:49:52.024Z,101291.42
2019-02-27T16:51:58.196Z,101286.75
2019-02-27T16:54:04.455Z,101285.95
2019-02-27T16:56:11.814Z,101286.00
2019-02-27T16:58:18.708Z,101290.32
2019-02-27T17:00:31.624Z,101291.98
2019-02-27T17:02:39.521Z,101288.02
2019-02-27T17:04:45.804Z,101280.52
2019-02-27T17:06:52.418Z,101279.04
2019-02-27T17:09:00.036Z,101272.06
2019-02-27T17:11:06.416Z,101263.00
2019-02-27T17:13:15.482Z,101262.61
2019-02-27T17:15:22.123Z,101256.63
2019-02-27T17:17:28.579Z,101250.01
2019-02-27T17:19:36.548Z,101253.09
2019-02-27T17:21:43.468Z,101252.19
2019-02-27T17:23:49.824Z,101250.48
2019-02-27T17:25:56.185Z,101248.75
2019-02-27T17:28:02.558Z,101247.00
2019-02-27T17:30:24.486Z,101242.64
2019-02-27T17:32:31.032Z,101242.51
2019-02-27T17:34:38.941Z,101240.72
2019-02-27T17:36:46.837Z,101235.48
2019-02-27T17:38:53.113Z,101232.39
2019-02-27T17:40:59.538Z,101233.34
2019-02-27T17:43:08.015Z,101228.55
2019-02-27T17:45:24.501Z,101221.59
2019-02-27T17:47:31.371Z,101215.04
2019-02-27T17:49:38.043Z,101219.41
2019-02-27T17:51:44.575Z,101207.25
2019-02-27T17:53:50.808Z,101205.88
2019-02-27T17:55:58.844Z,101208.94
2019-02-27T17:58:07.146Z,101202.02
2019-02-27T18:00:39.739Z,101196.83
2019-02-27T18:02:48.497Z,101196.83
2019-02-27T18:04:55.226Z,101191.59
2019-02-27T18:07:01.911Z,101178.08
2019-02-27T18:09:10.132Z,101185.35
2019-02-27T18:11:17.376Z,101183.13
2019-02-27T18:13:27.071Z,101176.15
2019-02-27T18:15:33.793Z,101178.86
2019-02-27T18:17:40.593Z,101172.37
2019-02-27T18:19:50.801Z,101177.98
2019-02-27T18:21:58.696Z,101165.79
2019-02-27T18:24:05.851Z,101158.81
2019-02-27T18:26:15.803Z,101162.34
2019-02-27T18:28:22.494Z,101155.42
2019-02-27T18:30:29.659Z,101146.36
2019-02-27T18:32:39.775Z,101145.15
2019-02-27T18:34:46.094Z,101138.72
2019-02-27T18:36:52.520Z,101138.86
2019-02-27T18:39:02.512Z,101132.07
2019-02-27T18:41:14.439Z,101132.59
2019-02-27T18:43:20.853Z,101130.90
2019-02-27T18:45:29.454Z,101136.59
2019-02-27T18:47:36.265Z,101128.42
2019-02-27T18:49:42.741Z,101123.75
2019-02-27T18:51:49.537Z,101127.28
2019-02-27T18:53:57.841Z,101121.70
2019-02-27T18:56:04.583Z,101110.94
2019-02-27T18:58:12.742Z,101109.67
2019-02-27T19:00:25.392Z,101106.23
2019-02-27T19:02:32.349Z,101095.47
2019-02-27T19:04:41.736Z,101099.06
2019-02-27T19:06:48.854Z,101101.34
2019-02-27T19:08:55.979Z,101095.80
2019-02-27T19:11:03.949Z,101096.30
2019-02-27T19:13:10.526Z,101095.94
2019-02-27T19:15:26.183Z,101089.04
2019-02-27T19:17:34.529Z,101087.36
2019-02-27T19:19:41.625Z,101077.90
2019-02-27T19:21:49.069Z,101080.53
2019-02-27T19:23:55.578Z,101070.59
2019-02-27T19:26:02.593Z,101069.78
2019-02-27T19:28:09.442Z,101070.28
2019-02-27T19:30:19.503Z,101066.83
2019-02-27T19:32:26.194Z,101066.42
2019-02-27T19:34:33.323Z,101062.55
2019-02-27T19:36:39.994Z,101065.58
2019-02-27T19:38:47.671Z,101051.70
2019-02-27T19:40:55.639Z,101043.05
2019-02-27T19:43:09.955Z,101043.08
2019-02-27T19:45:17.063Z,101045.68
2019-02-27T19:47:23.642Z,101035.23
2019-02-27T19:49:30.185Z,101035.66
2019-02-27T19:51:36.640Z,101029.58
2019-02-27T19:53:44.997Z,101023.97
2019-02-27T19:56:00.675Z,101022.17
2019-02-27T19:58:05.031Z,101015.19
2019-02-27T20:00:35.593Z,101013.89
2019-02-27T20:02:45.732Z,101012.89
2019-02-27T20:04:56.259Z,101012.36
2019-02-27T20:07:03.616Z,101002.73
2019-02-27T20:09:11.389Z,101001.33
2019-02-27T20:11:18.150Z,100989.95
2019-02-27T20:13:28.120Z,100987.70
2019-02-27T20:15:33.714Z,100989.37
2019-02-27T20:17:41.355Z,100981.54
2019-02-27T20:19:48.360Z,100975.45
2019-02-27T20:21:55.170Z,100973.35
2019-02-27T20:24:02.428Z,100974.23
2019-02-27T20:26:14.124Z,100962.13
2019-02-27T20:28:18.860Z,100969.95
2019-02-27T20:30:30.240Z,100964.27
2019-02-27T20:32:38.192Z,100955.97
2019-02-27T20:34:45.762Z,100953.78
2019-02-27T20:36:54.471Z,100946.36
2019-02-27T20:39:05.451Z,100936.36
2019-02-27T20:41:14.358Z,100933.44
2019-02-27T20:43:22.539Z,100930.79
2019-02-27T20:45:30.120Z,100929.56
2019-02-27T20:47:36.620Z,100928.26
2019-02-27T20:49:47.891Z,100919.20
2019-02-27T20:51:55.866Z,100916.61
2019-02-27T20:54:02.732Z,100912.33
2019-02-27T20:56:09.572Z,100905.85
2019-02-27T20:58:17.749Z,100902.84
2019-02-27T21:00:25.261Z,100900.24
2019-02-27T21:02:31.770Z,100892.82
2019-02-27T21:04:39.192Z,100891.00
2019-02-27T21:06:48.588Z,100883.61
2019-02-27T21:08:58.115Z,100877.13
2019-02-27T21:11:04.901Z,100872.78
2019-02-27T21:13:15.695Z,100876.61
2019-02-27T21:15:24.831Z,100870.92
2019-02-27T21:17:33.410Z,100867.40
2019-02-27T21:19:41.925Z,100862.48
2019-02-27T21:21:53.641Z,100856.74
2019-02-27T21:23:59.861Z,100851.43
2019-02-27T21:26:08.101Z,100845.24
2019-02-27T21:28:20.986Z,100842.98
2019-02-27T21:30:26.866Z,100836.74
2019-02-27T21:32:36.221Z,100832.39
2019-02-27T21:34:44.679Z,100834.19
2019-02-27T21:36:51.188Z,100834.61
2019-02-27T21:38:58.858Z,100831.17
2019-02-27T21:41:11.344Z,100821.90
2019-02-27T21:43:15.587Z,100822.39
2019-02-27T21:45:25.909Z,100817.59
2019-02-27T21:47:34.700Z,100818.90
2019-02-27T21:49:41.307Z,100818.80
2019-02-27T21:51:48.098Z,100811.41
2019-02-27T21:53:55.370Z,100805.31
2019-02-27T21:56:03.479Z,100798.34
2019-02-27T21:58:19.960Z,100804.78
2019-02-27T22:00:24.394Z,100794.43
2019-02-27T22:02:32.445Z,100793.13
2019-02-27T22:04:41.211Z,100798.80
2019-02-27T22:06:46.533Z,100802.77
2019-02-27T22:08:52.809Z,100791.59
2019-02-27T22:10:59.259Z,100791.66
2019-02-27T22:13:09.562Z,100783.97
2019-02-27T22:15:29.387Z,100783.98
2019-02-27T22:17:36.639Z,100778.38
2019-02-27T22:19:43.866Z,100774.61
2019-02-27T22:21:50.027Z,100775.14
2019-02-27T22:23:56.273Z,100761.28
2019-02-27T22:26:03.370Z,100758.73
2019-02-27T22:28:10.538Z,100757.08
2019-02-27T22:30:19.771Z,100752.78
2019-02-27T22:32:25.818Z,100748.53
2019-02-27T22:34:32.073Z,100755.05
2019-02-27T22:36:38.336Z,100747.67
2019-02-27T22:38:44.703Z,100742.84
2019-02-27T22:40:50.748Z,100745.49
2019-02-27T22:42:56.912Z,100741.19
2019-02-27T22:45:04.125Z,100735.55
2019-02-27T22:47:11.409Z,100738.29
2019-02-27T22:49:17.676Z,100729.69
2019-02-27T22:51:24.312Z,100728.00
2019-02-27T22:53:30.561Z,100725.95
2019-02-27T22:55:36.720Z,100719.06
2019-02-27T22:57:42.889Z,100714.77
2019-02-27T22:59:49.046Z,100712.69
2019-02-27T23:01:56.093Z,100713.47
2019-02-27T23:04:02.794Z,100713.11
2019-02-27T23:06:12.330Z,100705.69
2019-02-27T23:08:19.055Z,100708.78
2019-02-27T23:10:28.155Z,100706.69
2019-02-27T23:12:34.417Z,100706.73
2019-02-27T23:14:40.656Z,100706.38
2019-02-27T23:16:47.113Z,100703.50
2019-02-27T23:18:53.412Z,100696.67
2019-02-27T23:20:59.931Z,100687.64
2019-02-27T23:23:07.330Z,100673.43
2019-02-27T23:25:15.614Z,100665.27
2019-02-27T23:27:21.380Z,100663.60
2019-02-27T23:29:27.437Z,100659.27
2019-02-27T23:31:33.678Z,100656.30
2019-02-27T23:33:39.847Z,100652.83
2019-02-27T23:35:47.413Z,100646.39
2019-02-27T23:37:54.418Z,100648.56
2019-02-27T23:40:00.577Z,100646.43
2019-02-27T23:42:06.939Z,100637.76
2019-02-27T23:44:13.094Z,100636.92
2019-02-27T23:46:19.292Z,100636.93
2019-02-27T23:48:25.522Z,100639.09
2019-02-27T23:50:31.570Z,100635.12
2019-02-27T23:52:37.630Z,100631.19
2019-02-27T23:54:43.787Z,100621.57
2019-02-27T23:56:51.777Z,100619.76
2019-02-27T23:59:02.097Z,100619.25
